Time;durP1;ratioP1;P1;durP2;ratioP2;P2;SDS_P1;SDS_P2;PMS_P1;PMS_P2;Temp;Humidity;BMP_temperature;BMP_pressure;BME280_temperature;BME280_humidity;BME280_pressure;Samples;Min_cycle;Max_cycle;Signal;HPM_P1;HPM_P2
2020/12/18 00:01:37;;;;;;;7.60;5.50;;;;;;;9.33;69.47;102904.37;1754099;82;21530;-47
2020/12/18 00:04:05;;;;;;;7.30;6.47;;;;;;;9.50;68.91;102905.52;1753889;82;21580;-47
2020/12/18 00:06:36;;;;;;;7.25;6.15;;;;;;;9.28;69.63;102908.59;1753853;82;21291;-47
2020/12/18 00:09:08;;;;;;;7.00;5.80;;;;;;;9.14;70.17;102910.08;1753675;82;21290;-47
2020/12/18 00:11:36;;;;;;;7.65;6.30;;;;;;;9.12;70.37;102909.17;1753830;82;21294;-47
2020/12/18 00:14:06;;;;;;;6.40;5.42;;;;;;;9.13;70.43;102910.91;1689326;83;21172;-47
2020/12/18 00:16:43;;;;;;;7.65;5.92;;;;;;;9.16;70.54;102905.78;1820032;79;22206;-46
2020/12/18 00:19:11;;;;;;;8.38;6.40;;;;;;;9.13;70.55;102917.41;1793337;80;21583;-46
2020/12/18 00:21:39;;;;;;;8.90;6.15;;;;;;;9.13;70.53;102910.91;1793223;80;21175;-46
2020/12/18 00:24:09;;;;;;;6.87;4.92;;;;;;;9.13;70.49;102914.80;1793280;80;21128;-46
2020/12/18 00:26:37;;;;;;;5.30;4.80;;;;;;;9.10;70.52;102913.47;1793408;80;21135;-46
2020/12/18 00:29:08;;;;;;;7.28;5.00;;;;;;;9.09;70.56;102905.20;1793444;80;21143;-46
2020/12/18 00:31:37;;;;;;;6.92;5.67;;;;;;;9.06;70.70;102903.88;1793287;80;21151;-46
2020/12/18 00:34:06;;;;;;;7.20;5.58;;;;;;;9.06;70.75;102906.47;1793155;80;21092;-46
2020/12/18 00:36:35;;;;;;;8.20;5.83;;;;;;;9.04;70.86;102905.56;1793341;80;21107;-46
2020/12/18 00:39:05;;;;;;;5.83;4.60;;;;;;;9.03;70.95;102904.25;1793652;80;21552;-46
2020/12/18 00:41:43;;;;;;;;;;;;;;;;;;;;;
2020/12/18 00:44:03;;;;;;;6.80;4.62;;;;;;;8.99;70.98;102900.70;1726215;83;21235;-46
2020/12/18 00:46:41;;;;;;;;;;;;;;;;;;;;;
2020/12/18 00:49:07;;;;;;;8.23;5.75;;;;;;;9.41;70.01;102892.38;1781093;79;22911;-46
2020/12/18 00:51:35;;;;;;;6.78;5.12;;;;;;;9.41;69.68;102894.98;1753784;81;21302;-46
2020/12/18 00:54:03;;;;;;;6.75;4.95;;;;;;;9.42;69.57;102896.72;1753859;82;21125;-47
2020/12/18 00:56:32;;;;;;;9.38;5.30;;;;;;;9.44;69.55;102890.23;1754139;82;21286;-47
2020/12/18 00:59:02;;;;;;;8.33;4.75;;;;;;;9.45;69.59;102890.28;1723021;82;21145;-46
2020/12/18 01:01:34;;;;;;;6.03;5.22;;;;;;;9.46;69.56;102897.22;1708997;84;21211;-46
2020/12/18 01:04:03;;;;;;;7.37;4.70;;;;;;;9.47;69.50;102898.98;1709490;84;21266;-46
2020/12/18 01:06:32;;;;;;;7.78;5.08;;;;;;;9.48;69.31;102895.97;1709376;84;21650;-46
2020/12/18 01:09:04;;;;;;;5.60;4.47;;;;;;;9.47;69.23;102890.30;1709317;84;21664;-46
2020/12/18 01:11:39;;;;;;;7.05;4.90;;;;;;;9.18;69.98;102893.70;1709054;84;21206;-46
2020/12/18 01:14:18;;;;;;;;;;;;;;;;;;;;;
2020/12/18 01:16:54;;;;;;;5.67;4.47;;;;;;;9.03;70.94;102899.05;1781148;79;23038;-46
2020/12/18 01:19:22;;;;;;;5.37;4.70;;;;;;;9.26;70.22;102892.11;1753856;82;21295;-46
2020/12/18 01:21:51;;;;;;;6.00;4.53;;;;;;;9.42;69.75;102889.34;1753818;82;21319;-46
2020/12/18 01:24:21;;;;;;;5.00;4.45;;;;;;;9.25;70.20;102891.67;1754152;82;21290;-46
2020/12/18 01:26:51;;;;;;;9.18;4.08;;;;;;;9.01;71.19;102895.11;1753616;82;21152;-46
2020/12/18 01:29:21;;;;;;;5.08;3.85;;;;;;;8.99;71.38;102899.39;1753739;82;21318;-46
2020/12/18 01:31:50;;;;;;;5.15;3.87;;;;;;;8.96;71.73;102895.47;1753869;82;21216;-46
2020/12/18 01:34:19;;;;;;;5.20;3.83;;;;;;;8.95;71.80;102894.99;1753900;81;21200;-46
2020/12/18 01:36:48;;;;;;;5.62;4.10;;;;;;;8.94;71.68;102895.86;1753732;82;21573;-46
2020/12/18 01:39:18;;;;;;;6.92;4.30;;;;;;;9.35;70.38;102886.20;1741298;82;21179;-46
2020/12/18 01:41:47;;;;;;;6.28;4.05;;;;;;;9.42;70.07;102882.42;1728807;83;21179;-46
2020/12/18 01:44:15;;;;;;;5.50;4.30;;;;;;;9.39;70.12;102881.09;1695788;84;21184;-46
2020/12/18 01:46:53;;;;;;;6.40;5.03;;;;;;;9.06;71.43;102871.83;1802028;79;28133;-46
2020/12/18 01:49:21;;;;;;;4.87;3.92;;;;;;;9.04;71.56;102874.41;1788300;80;21322;-46
2020/12/18 01:51:51;;;;;;;5.03;4.17;;;;;;;9.09;71.41;102872.75;1788470;80;21108;-46
2020/12/18 01:54:23;;;;;;;7.47;4.58;;;;;;;9.09;71.41;102874.05;1783975;80;21104;-46
2020/12/18 01:56:52;;;;;;;6.87;4.12;;;;;;;9.09;71.40;102868.84;1788385;80;21136;-46
2020/12/18 01:59:24;;;;;;;6.30;4.73;;;;;;;9.08;71.48;102874.02;1784216;80;21140;-46
2020/12/18 02:02:10;;;;;;;5.72;4.35;;;;;;;9.13;71.46;102877.14;1817578;79;22196;-46
2020/12/18 02:04:44;;;;;;;6.78;4.80;;;;;;;9.09;71.45;102869.30;1784280;80;21128;-46
2020/12/18 02:07:14;;;;;;;7.28;5.03;;;;;;;9.09;71.48;102880.53;1788297;80;21136;-46
2020/12/18 02:09:44;;;;;;;6.65;5.12;;;;;;;9.08;71.46;102878.80;1784130;80;21297;-47
2020/12/18 02:12:12;;;;;;;7.05;4.72;;;;;;;9.06;71.40;102874.42;1788243;80;21301;-46
2020/12/18 02:14:43;;;;;;;6.87;4.97;;;;;;;9.02;71.52;102869.61;1760947;80;21136;-46
2020/12/18 02:17:11;;;;;;;9.28;6.00;;;;;;;8.98;71.68;102876.89;1788268;80;21269;-47
2020/12/18 02:19:43;;;;;;;5.78;4.65;;;;;;;8.94;71.90;102877.68;1788154;80;21092;-46
2020/12/18 02:22:17;;;;;;;12.68;5.55;;;;;;;8.93;72.01;102879.81;1784031;80;21131;-47
2020/12/18 02:27:37;;;;;;;5.72;4.60;;;;;;;8.90;72.31;102883.22;1631743;86;21218;-46
2020/12/18 02:30:08;;;;;;;;;;;;;;;8.89;72.42;102881.90;1633667;88;21198;-46
2020/12/18 02:32:38;;;;;;;6.40;4.28;;;;;;;8.89;72.61;102888.39;1631774;88;20154;-47
2020/12/18 02:35:08;;;;;;;6.05;4.30;;;;;;;8.87;72.73;102886.19;1631501;88;21245;-46
2020/12/18 02:37:38;;;;;;;6.35;3.50;;;;;;;8.87;72.78;102888.78;1631319;88;21214;-47
2020/12/18 02:40:14;;;;;;;4.53;3.42;;;;;;;8.89;72.81;102893.58;1802003;79;28149;-47
2020/12/18 02:43:00;;;;;;;5.70;3.08;;;;;;;8.89;72.81;102893.58;1788273;80;21148;-46
2020/12/18 02:45:30;;;;;;;5.45;3.05;;;;;;;8.94;72.62;102893.27;1788267;80;21184;-46
2020/12/18 02:48:12;;;;;;;5.78;2.52;;;;;;;8.93;72.53;102890.20;1784237;80;21141;-46
2020/12/18 02:50:42;;;;;;;3.37;2.50;;;;;;;8.92;72.40;102897.55;1784158;80;21139;-46
2020/12/18 02:53:17;;;;;;;2.90;1.57;;;;;;;8.88;72.33;102897.89;1788330;79;21156;-46
2020/12/18 02:55:47;;;;;;;2.52;1.95;;;;;;;8.84;72.23;102892.64;1675849;84;21229;-46
2020/12/18 02:58:30;;;;;;;2.77;1.92;;;;;;;8.82;72.36;102895.63;1781059;79;22888;-46
2020/12/18 03:00:59;;;;;;;2.70;1.92;;;;;;;8.73;72.42;102898.03;1753764;82;21289;-46
2020/12/18 03:03:27;;;;;;;5.55;2.52;;;;;;;8.70;72.57;102897.95;1753899;82;21290;-46
2020/12/18 03:05:57;;;;;;;3.10;2.33;;;;;;;8.71;72.68;102897.13;1749380;82;21117;-46
2020/12/18 03:11:04;;;;;;;7.60;3.00;;;;;;;8.74;72.52;102899.77;1781086;79;22860;-46
2020/12/18 03:13:32;;;;;;;3.58;2.60;;;;;;;8.69;72.73;102898.41;1753923;82;21128;-46
2020/12/18 03:16:02;;;;;;;3.83;2.60;;;;;;;8.72;72.82;102902.75;1753956;82;21605;-46
2020/12/18 03:18:32;;;;;;;3.85;2.62;;;;;;;8.74;72.67;102898.47;1736045;82;21132;-46
2020/12/18 03:21:08;;;;;;;4.47;2.80;;;;;;;8.74;72.54;102892.86;1804557;79;28018;-46
2020/12/18 03:23:38;;;;;;;5.70;2.52;;;;;;;8.73;72.46;102899.33;1788668;80;21160;-46
2020/12/18 03:26:17;;;;;;;4.00;2.30;;;;;;;8.74;72.34;102898.47;1687088;85;21186;-46
2020/12/18 03:28:54;;;;;;;4.95;2.77;;;;;;;8.75;72.51;102898.94;1819958;79;23236;-46
2020/12/18 03:31:23;;;;;;;4.65;2.87;;;;;;;8.68;72.57;102899.64;1793600;80;21132;-46
2020/12/18 03:33:51;;;;;;;5.20;2.75;;;;;;;8.67;72.73;102901.80;1793408;80;21164;-47
2020/12/18 03:36:26;;;;;;;8.60;2.90;;;;;;;8.70;72.64;102901.84;1788805;80;21305;-46
2020/12/18 03:38:56;;;;;;;4.12;2.70;;;;;;;8.71;72.68;102895.41;1793323;80;21298;-46
2020/12/18 03:41:26;;;;;;;5.37;2.70;;;;;;;8.73;72.72;102896.73;1793213;80;21109;-46
2020/12/18 03:43:54;;;;;;;4.12;2.92;;;;;;;8.75;72.70;102892.45;1793493;80;21144;-47
2020/12/18 03:46:22;;;;;;;3.98;2.27;;;;;;;8.75;72.55;102892.45;1793420;80;21109;-48
2020/12/18 03:49:04;;;;;;;;;;;;;;;8.72;72.67;102892.38;1727238;83;21602;-47
2020/12/18 03:51:33;;;;;;;3.72;2.40;;;;;;;8.73;72.80;102892.84;1725003;83;20211;-46
2020/12/18 03:54:03;;;;;;;4.95;2.67;;;;;;;8.74;73.03;102891.98;1724544;83;21158;-46
2020/12/18 03:56:44;;;;;;;4.47;2.52;;;;;;;8.81;73.02;102886.08;1781084;79;22867;-46
2020/12/18 03:59:14;;;;;;;4.25;2.02;;;;;;;8.78;72.92;102890.77;1749637;82;21216;-45
2020/12/18 04:02:01;;;;;;;3.10;2.30;;;;;;;8.76;72.88;102892.47;1753809;81;21141;-46
2020/12/18 04:04:29;;;;;;;5.78;2.30;;;;;;;8.78;72.90;102896.38;1753916;81;21292;-46
2020/12/18 04:07:02;;;;;;;4.35;2.22;;;;;;;8.79;72.96;102898.15;1753707;81;21136;-46
2020/12/18 04:09:30;;;;;;;3.27;2.20;;;;;;;8.81;72.85;102897.75;1754062;82;21180;-46
2020/12/18 04:12:00;;;;;;;3.77;2.25;;;;;;;8.85;72.68;102899.56;1718320;82;21141;-46
2020/12/18 04:14:37;;;;;;;3.95;2.52;;;;;;;8.91;72.46;102895.78;1802036;79;28588;-46
2020/12/18 04:17:07;;;;;;;2.72;2.10;;;;;;;8.94;72.32;102903.65;1784172;80;21159;-45
2020/12/18 04:19:34;;;;;;;3.27;2.35;;;;;;;8.98;72.09;102896.37;1759998;80;21143;-46
2020/12/18 04:22:07;;;;;;;3.42;2.50;;;;;;;8.99;71.99;102904.59;1784163;80;21128;-46
2020/12/18 04:24:36;;;;;;;4.67;2.00;;;;;;;8.98;71.93;102900.27;1700110;84;21575;-47
2020/12/18 04:27:07;;;;;;;3.90;2.52;;;;;;;8.97;71.92;102898.49;1699770;84;21203;-46
2020/12/18 04:29:36;;;;;;;3.25;2.12;;;;;;;8.96;71.91;102898.06;1699692;84;21187;-46
2020/12/18 04:32:05;;;;;;;3.05;2.00;;;;;;;8.95;71.98;102898.89;1699820;84;21775;-46
2020/12/18 04:34:33;;;;;;;3.12;2.05;;;;;;;8.96;71.95;102900.66;1700187;84;21189;-47
2020/12/18 04:37:20;;;;;;;6.05;2.02;;;;;;;9.01;71.97;102905.49;1780866;79;23099;-46
2020/12/18 04:40:03;;;;;;;5.00;2.55;;;;;;;9.15;71.33;102907.91;1749588;82;21196;-46
2020/12/18 04:42:34;;;;;;;3.80;1.90;;;;;;;9.41;70.30;102907.97;1754220;82;21305;-46
2020/12/18 04:45:06;;;;;;;3.35;2.22;;;;;;;9.45;70.14;102906.30;1753816;81;21156;-46
2020/12/18 04:47:44;;;;;;;2.60;1.50;;;;;;;9.47;70.07;102904.18;1709174;84;21206;-46
2020/12/18 04:50:13;;;;;;;3.17;1.72;;;;;;;9.50;69.97;102909.41;1709024;84;21194;-46
2020/12/18 04:52:43;;;;;;;3.08;1.85;;;;;;;9.13;70.98;102920.45;1706004;84;21744;-46
2020/12/18 04:55:12;;;;;;;4.58;2.10;;;;;;;9.04;71.28;102922.45;1709071;84;21166;-46
2020/12/18 04:58:00;;;;;;;2.27;1.50;;;;;;;9.03;71.27;102921.98;1689333;84;21174;-47
2020/12/18 05:00:35;;;;;;;2.40;1.45;;;;;;;9.05;71.28;102924.18;1819956;79;22953;-46
2020/12/18 05:03:17;;;;;;;5.35;1.85;;;;;;;9.00;71.12;102925.83;1788689;80;21152;-46
2020/12/18 05:05:45;;;;;;;3.12;1.95;;;;;;;8.99;71.00;102933.16;1793665;80;21156;-46
2020/12/18 05:08:18;;;;;;;3.33;1.50;;;;;;;8.95;71.11;102930.05;1793230;80;21140;-46
2020/12/18 05:10:49;;;;;;;4.78;2.08;;;;;;;9.64;68.95;102922.20;1793580;80;21298;-46
2020/12/18 05:13:28;;;;;;;2.58;1.65;;;;;;;9.75;68.45;102928.46;1789099;80;21306;-46
2020/12/18 05:16:07;;;;;;;4.17;2.02;;;;;;;9.35;69.78;102928.66;1781061;79;22879;-46
2020/12/18 05:18:47;;;;;;;5.55;2.58;;;;;;;9.31;69.88;102945.45;1749367;82;21290;-46
2020/12/18 05:21:23;;;;;;;3.37;2.40;;;;;;;9.33;69.79;102946.36;1749293;82;21144;-46
2020/12/18 05:23:55;;;;;;;5.67;2.98;;;;;;;9.36;69.87;102943.38;1699949;82;21165;-46
2020/12/18 05:26:29;;;;;;;4.78;3.55;;;;;;;9.37;69.93;102947.75;1749534;82;21136;-46
2020/12/18 05:29:08;;;;;;;3.90;3.02;;;;;;;9.63;69.40;102946.46;1753790;82;21188;-46
2020/12/18 05:31:59;;;;;;;5.97;3.22;;;;;;;9.83;68.51;102946.36;1730643;83;21187;-46
2020/12/18 05:34:40;;;;;;;3.98;2.58;;;;;;;9.88;68.43;102949.45;1781000;79;22902;-46
2020/12/18 05:37:12;;;;;;;4.37;3.10;;;;;;;9.81;68.51;102955.86;1749755;82;21168;-46
2020/12/18 05:40:00;;;;;;;4.25;2.90;;;;;;;9.80;68.58;102958.03;1753701;81;21149;-46
2020/12/18 05:42:47;;;;;;;3.30;2.80;;;;;;;9.84;68.51;102962.42;1746724;82;21184;-47
2020/12/18 05:45:22;;;;;;;5.50;3.37;;;;;;;9.48;69.79;102966.98;1749783;82;21148;-47
2020/12/18 05:47:56;;;;;;;5.33;3.52;;;;;;;9.80;68.61;102962.34;1749620;82;21279;-47
2020/12/18 05:50:33;;;;;;;3.95;3.00;;;;;;;9.24;70.44;102963.95;1701479;84;21216;-49
2020/12/18 05:53:09;;;;;;;5.55;4.05;;;;;;;9.21;70.98;102965.17;1820008;79;22666;-46
2020/12/18 05:55:41;;;;;;;5.85;3.08;;;;;;;9.41;70.04;102970.34;1781108;80;21144;-46
2020/12/18 05:58:14;;;;;;;3.87;3.00;;;;;;;9.31;70.59;102974.91;1788753;80;21595;-46
2020/12/18 06:00:44;;;;;;;4.12;3.02;;;;;;;9.85;68.88;102967.17;1788887;80;21140;-46
2020/12/18 06:03:23;;;;;;;4.12;2.87;;;;;;;10.00;68.33;102966.13;1726136;83;21367;-47
2020/12/18 06:06:00;;;;;;;5.95;3.08;;;;;;;10.48;67.16;102968.62;1781031;79;23356;-47
2020/12/18 06:08:29;;;;;;;3.35;2.85;;;;;;;9.29;70.27;102972.72;1725051;82;21152;-47
2020/12/18 06:10:59;;;;;;;8.05;3.58;;;;;;;9.14;70.90;102972.41;1753768;82;21148;-47
2020/12/18 06:13:37;;;;;;;5.47;3.30;;;;;;;9.14;71.11;102975.02;1804362;79;28403;-45
2020/12/18 06:16:13;;;;;;;5.53;3.60;;;;;;;9.16;71.14;102980.23;1788599;80;21144;-46
2020/12/18 06:19:05;;;;;;;4.83;3.60;;;;;;;9.22;70.97;102972.55;1793294;80;21131;-46
2020/12/18 06:21:35;;;;;;;4.12;3.08;;;;;;;9.44;70.12;102972.97;1788711;80;21119;-46
2020/12/18 06:24:04;;;;;;;6.35;2.95;;;;;;;9.64;69.26;102975.94;1793214;80;21262;-46
2020/12/18 06:26:54;;;;;;;5.75;2.92;;;;;;;9.66;69.10;102972.52;1793279;80;21157;-47
2020/12/18 06:29:26;;;;;;;5.83;3.30;;;;;;;9.62;69.17;102975.89;1687014;85;21318;-46
2020/12/18 06:32:28;;;;;;;5.30;2.95;;;;;;;9.62;68.99;102978.48;1687091;85;21656;-48
2020/12/18 06:35:36;;;;;;;5.45;3.15;;;;;;;9.63;68.91;102976.36;1781103;79;22906;-47
2020/12/18 06:38:24;;;;;;;7.12;2.98;;;;;;;9.56;68.88;102978.38;1730559;83;21233;-46
2020/12/18 06:41:22;;;;;;;6.42;3.15;;;;;;;9.54;69.05;102981.38;1730627;81;21373;-47
2020/12/18 06:43:55;;;;;;;6.22;3.83;;;;;;;9.58;69.11;102984.48;1781082;79;22905;-46
2020/12/18 06:46:25;;;;;;;4.58;3.10;;;;;;;9.53;69.22;102984.84;1749419;82;21181;-46
2020/12/18 06:48:58;;;;;;;4.92;3.12;;;;;;;9.53;69.16;102993.94;1717996;82;21322;-46
2020/12/18 06:51:46;;;;;;;4.95;2.77;;;;;;;9.54;69.06;102997.42;1717986;83;21157;-45
2020/12/18 06:54:22;;;;;;;6.05;3.50;;;;;;;9.59;69.17;102990.56;1781024;79;23362;-46
2020/12/18 06:56:56;;;;;;;6.22;3.33;;;;;;;9.55;69.25;102996.14;1749345;82;21294;-46
2020/12/18 06:59:28;;;;;;;7.40;3.58;;;;;;;9.55;69.24;102996.14;1726078;82;21309;-46
2020/12/18 07:01:58;;;;;;;4.30;3.17;;;;;;;9.57;69.18;103000.94;1753844;82;21148;-47
2020/12/18 07:07:18;;;;;;;5.05;3.70;;;;;;;9.58;69.20;103000.08;1705356;83;21176;-46
2020/12/18 07:09:47;;;;;;;5.28;3.30;;;;;;;9.58;69.34;103000.08;1695215;85;21329;-46
2020/12/18 07:12:15;;;;;;;6.15;4.22;;;;;;;9.62;69.32;102997.13;1695222;85;21298;-46
2020/12/18 07:14:52;;;;;;;6.58;3.72;;;;;;;9.68;69.26;103000.72;1819977;79;22785;-46
2020/12/18 07:17:21;;;;;;;4.87;3.98;;;;;;;9.66;69.16;103002.42;1792459;80;21148;-46
2020/12/18 07:19:49;;;;;;;5.25;3.52;;;;;;;9.66;69.19;102998.52;1763286;80;21298;-46
2020/12/18 07:22:23;;;;;;;5.60;3.72;;;;;;;9.66;69.34;102995.92;1793581;80;21128;-46
2020/12/18 07:24:53;;;;;;;7.05;4.05;;;;;;;9.67;69.45;103005.45;1789160;80;21160;-46
2020/12/18 07:27:21;;;;;;;6.17;4.10;;;;;;;9.68;69.59;103000.72;1793722;80;21294;-45
2020/12/18 07:29:52;;;;;;;6.15;3.33;;;;;;;9.72;69.58;103001.23;1793521;80;21577;-46
2020/12/18 07:32:20;;;;;;;5.45;3.27;;;;;;;9.73;69.51;102999.06;1793391;80;21278;-46
2020/12/18 07:35:07;;;;;;;5.83;3.45;;;;;;;9.75;69.54;102996.06;1761325;80;21306;-46
2020/12/18 07:37:36;;;;;;;6.65;3.72;;;;;;;9.77;69.66;102996.08;1756200;81;21205;-46
2020/12/18 07:40:05;;;;;;;6.78;3.33;;;;;;;9.82;69.70;103000.53;1756568;82;21675;-46
2020/12/18 07:42:33;;;;;;;4.33;3.35;;;;;;;9.85;69.70;103002.28;1756453;82;21137;-47
2020/12/18 07:45:07;;;;;;;4.90;3.12;;;;;;;9.88;69.70;102996.27;1756219;82;21165;-46
2020/12/18 07:47:41;;;;;;;4.85;3.62;;;;;;;9.94;69.59;102996.36;1820055;79;22816;-47
2020/12/18 07:50:10;;;;;;;5.95;3.83;;;;;;;9.92;69.59;102999.36;1793332;80;21160;-45
2020/12/18 07:52:38;;;;;;;6.42;4.00;;;;;;;9.96;69.53;103002.46;1793318;80;21152;-46
2020/12/18 07:55:07;;;;;;;5.97;3.42;;;;;;;9.96;69.66;103006.36;1793411;80;21145;-46
2020/12/18 07:57:35;;;;;;;5.47;4.03;;;;;;;9.98;69.68;103005.96;1793289;80;21294;-46
2020/12/18 08:00:09;;;;;;;7.75;3.75;;;;;;;10.01;69.55;103004.73;1793278;80;21148;-46
2020/12/18 08:02:41;;;;;;;7.62;3.35;;;;;;;10.03;69.61;103006.52;1793565;80;21124;-46
2020/12/18 08:05:09;;;;;;;6.40;3.70;;;;;;;10.10;69.66;103009.67;1793382;80;21152;-46
2020/12/18 08:07:37;;;;;;;4.87;3.58;;;;;;;10.10;69.68;103008.79;1793634;80;21152;-46
2020/12/18 08:10:05;;;;;;;6.87;4.53;;;;;;;10.12;69.63;103004.52;1793282;80;21112;-46
2020/12/18 08:12:37;;;;;;;8.33;4.08;;;;;;;10.26;69.06;103003.00;1793460;80;21207;-47
2020/12/18 08:15:14;;;;;;;7.17;3.37;;;;;;;10.23;69.39;103000.34;1781019;79;23375;-46
2020/12/18 08:17:44;;;;;;;7.72;4.35;;;;;;;10.46;68.51;103001.56;1754062;82;21128;-46
2020/12/18 08:20:14;;;;;;;6.83;4.33;;;;;;;10.28;68.87;103001.30;1754166;82;21157;-46
2020/12/18 08:22:44;;;;;;;5.67;3.98;;;;;;;10.24;68.99;102997.75;1753703;82;21164;-46
2020/12/18 08:25:17;;;;;;;7.80;3.80;;;;;;;10.26;68.96;102992.59;1754305;81;21619;-46
2020/12/18 08:27:49;;;;;;;5.25;3.72;;;;;;;10.25;68.97;102999.94;1754078;82;21558;-46
2020/12/18 08:30:17;;;;;;;4.72;3.77;;;;;;;10.26;68.98;102997.80;1753765;82;21177;-46
2020/12/18 08:32:49;;;;;;;6.12;3.62;;;;;;;10.26;69.12;102996.50;1725066;82;21518;-46
2020/12/18 08:35:20;;;;;;;6.00;3.92;;;;;;;10.27;69.01;102999.53;1749985;82;21172;-47
2020/12/18 08:37:49;;;;;;;5.90;3.93;;;;;;;10.29;68.92;102997.83;1754021;82;21306;-46
2020/12/18 08:40:21;;;;;;;5.35;3.47;;;;;;;10.28;68.79;102996.94;1753784;81;21658;-46
2020/12/18 08:43:00;;;;;;;8.65;4.17;;;;;;;10.41;68.35;102998.88;1754082;82;21168;-46
2020/12/18 08:45:29;;;;;;;5.62;3.77;;;;;;;10.49;68.17;102993.77;1709053;82;21328;-46
2020/12/18 08:47:57;;;;;;;5.00;3.55;;;;;;;10.61;67.74;102993.97;1709073;84;21344;-46
2020/12/18 08:50:25;;;;;;;13.00;4.80;;;;;;;10.46;68.15;102998.95;1709164;84;21193;-46
2020/12/18 08:52:54;;;;;;;4.47;3.30;;;;;;;10.67;67.52;102992.75;1709087;84;21195;-46
2020/12/18 08:55:22;;;;;;;5.97;3.50;;;;;;;10.64;67.37;102992.27;1709087;84;21190;-46
2020/12/18 08:57:50;;;;;;;4.67;3.62;;;;;;;10.51;67.87;102999.46;1709241;84;21225;-46
2020/12/18 09:00:22;;;;;;;7.05;3.90;;;;;;;10.40;68.18;102985.86;1709021;84;21317;-47
2020/12/18 09:02:58;;;;;;;5.97;3.00;;;;;;;10.54;68.07;102992.13;1709186;84;21218;-47
2020/12/18 09:05:30;;;;;;;6.10;2.60;;;;;;;10.74;67.64;102985.45;1709082;84;21186;-47
2020/12/18 09:08:16;;;;;;;4.15;2.10;;;;;;;10.80;67.50;102992.03;1709223;84;21174;-47
2020/12/18 09:13:31;;;;;;;3.75;2.02;;;;;;;10.93;67.32;102980.92;1780894;79;22958;-45
2020/12/18 09:16:05;;;;;;;4.37;1.92;;;;;;;10.95;66.98;102988.75;1754170;82;21152;-46
2020/12/18 09:18:38;;;;;;;3.98;2.10;;;;;;;10.78;67.13;102988.54;1753976;82;21176;-46
2020/12/18 09:21:14;;;;;;;2.98;2.40;;;;;;;10.70;67.41;102986.69;1753804;80;21176;-46
2020/12/18 09:23:46;;;;;;;3.70;2.25;;;;;;;10.63;67.51;102982.70;1718010;82;21160;-46
2020/12/18 09:26:25;;;;;;;5.05;2.20;;;;;;;10.62;67.61;102980.08;1714607;83;21159;-46
2020/12/18 09:28:54;;;;;;;2.77;2.17;;;;;;;10.70;67.49;102978.45;1718143;83;21220;-46
2020/12/18 09:31:25;;;;;;;7.85;2.65;;;;;;;10.68;67.53;102980.16;1718195;83;21125;-46
2020/12/18 09:33:53;;;;;;;6.60;2.85;;;;;;;10.65;67.99;102982.75;1718180;83;21294;-46
2020/12/18 09:36:22;;;;;;;4.75;2.40;;;;;;;10.69;67.93;102970.21;1718012;83;21132;-47
2020/12/18 09:38:53;;;;;;;4.97;2.58;;;;;;;10.68;68.14;102965.84;1718003;83;21176;-46
2020/12/18 09:41:23;;;;;;;3.40;2.20;;;;;;;10.71;68.39;102972.83;1718116;83;21168;-46
2020/12/18 09:43:51;;;;;;;7.12;3.10;;;;;;;10.72;68.52;102972.84;1718007;83;21168;-46
2020/12/18 09:46:22;;;;;;;5.10;3.15;;;;;;;10.75;68.47;102974.20;1718014;83;21350;-46
2020/12/18 09:48:50;;;;;;;4.12;3.10;;;;;;;10.78;68.50;102971.61;1718267;83;21197;-46
2020/12/18 09:51:19;;;;;;;4.55;2.58;;;;;;;10.80;68.52;102971.20;1718039;83;21148;-47
2020/12/18 09:53:48;;;;;;;4.35;3.02;;;;;;;10.81;68.51;102966.45;1717986;83;21168;-47
2020/12/18 09:56:17;;;;;;;4.00;3.12;;;;;;;10.84;68.56;102969.08;1717976;83;21188;-47
2020/12/18 09:58:45;;;;;;;5.20;3.12;;;;;;;10.87;68.69;102972.16;1717927;83;21377;-46
2020/12/18 10:01:23;;;;;;;6.10;3.55;;;;;;;10.91;68.43;102967.02;1717953;83;21355;-46
2020/12/18 10:03:51;;;;;;;7.78;4.10;;;;;;;10.95;68.31;102967.48;1711149;83;21188;-46
2020/12/18 10:06:24;;;;;;;3.92;2.92;;;;;;;10.97;68.09;102961.87;1718004;83;21192;-47
2020/12/18 10:08:53;;;;;;;4.25;3.05;;;;;;;10.97;68.09;102957.97;1715383;83;21156;-46
2020/12/18 10:11:29;;;;;;;3.70;2.70;;;;;;;11.00;68.07;102964.53;1717801;82;21169;-47
2020/12/18 10:13:57;;;;;;;4.00;2.85;;;;;;;11.01;68.09;102958.86;1715233;83;21165;-46
2020/12/18 10:16:25;;;;;;;5.20;3.12;;;;;;;11.01;67.86;102958.86;1715222;83;21184;-47
2020/12/18 10:18:54;;;;;;;3.80;2.77;;;;;;;11.00;67.73;102955.41;1715123;84;21176;-46
2020/12/18 10:21:22;;;;;;;3.87;2.52;;;;;;;10.98;67.58;102955.82;1736675;82;21287;-46
2020/12/18 10:23:50;;;;;;;4.95;2.83;;;;;;;10.97;67.42;102960.56;1740276;82;21177;-46
2020/12/18 10:26:19;;;;;;;3.58;2.22;;;;;;;10.95;67.48;102954.89;1740073;82;21169;-46
2020/12/18 10:28:47;;;;;;;4.92;2.62;;;;;;;10.94;67.46;102960.52;1739938;82;21180;-46
2020/12/18 10:31:15;;;;;;;4.75;2.87;;;;;;;10.94;67.42;102957.91;1739906;82;21141;-46
2020/12/18 10:33:43;;;;;;;4.22;2.92;;;;;;;10.97;67.26;102959.69;1739943;82;21157;-46
2020/12/18 10:36:11;;;;;;;4.25;2.33;;;;;;;10.95;67.21;102954.47;1739991;82;21157;-46
2020/12/18 10:38:40;;;;;;;3.30;2.50;;;;;;;10.93;67.12;102950.97;1740132;82;21177;-46
2020/12/18 10:41:09;;;;;;;3.08;2.58;;;;;;;10.91;67.50;102944.87;1739962;82;21205;-46
2020/12/18 10:43:37;;;;;;;5.10;2.60;;;;;;;10.95;67.49;102949.25;1740158;82;21180;-46
2020/12/18 10:46:06;;;;;;;5.90;2.22;;;;;;;10.92;67.56;102946.59;1740004;82;21149;-46
2020/12/18 10:48:34;;;;;;;5.28;2.27;;;;;;;10.92;67.60;102941.39;1739883;82;21161;-46
2020/12/18 10:51:02;;;;;;;2.72;1.82;;;;;;;10.94;67.54;102942.28;1738802;82;21126;-47
2020/12/18 10:53:30;;;;;;;2.12;1.72;;;;;;;11.02;66.72;102936.76;1718344;82;21176;-46
2020/12/18 10:56:01;;;;;;;2.05;1.85;;;;;;;10.87;66.85;102934.39;1726929;82;21165;-47
2020/12/18 10:58:29;;;;;;;5.17;2.50;;;;;;;10.76;67.14;102934.27;1727884;82;21307;-46
2020/12/18 11:00:58;;;;;;;3.60;2.10;;;;;;;10.67;67.52;102927.66;1720301;82;21161;-47
2020/12/18 11:03:26;;;;;;;3.17;2.15;;;;;;;10.60;67.69;102928.00;1724962;82;21160;-46
2020/12/18 11:05:54;;;;;;;2.75;1.87;;;;;;;10.55;67.85;102927.51;1724745;82;21267;-46
2020/12/18 11:08:24;;;;;;;2.02;1.70;;;;;;;10.50;67.95;102921.36;1722176;82;21154;-46
2020/12/18 11:10:53;;;;;;;2.25;1.75;;;;;;;10.44;68.13;102922.58;1734027;82;21700;-46
2020/12/18 11:13:22;;;;;;;2.17;1.50;;;;;;;10.39;67.84;102919.03;1741153;81;21279;-46
2020/12/18 11:15:51;;;;;;;2.72;1.60;;;;;;;10.36;67.58;102920.30;1737056;82;21540;-47
2020/12/18 11:18:19;;;;;;;1.85;1.65;;;;;;;10.32;67.48;102919.81;1739955;82;21137;-47
2020/12/18 11:20:47;;;;;;;4.10;1.90;;;;;;;10.27;67.54;102917.56;1729260;82;21159;-47
2020/12/18 11:23:16;;;;;;;2.42;1.82;;;;;;;10.24;67.69;102913.64;1727637;82;21156;-47
2020/12/18 11:25:44;;;;;;;3.08;2.52;;;;;;;10.21;67.73;102912.28;1743732;82;21177;-46
2020/12/18 11:28:13;;;;;;;1.90;1.57;;;;;;;10.21;67.65;102913.58;1740936;82;21148;-47
2020/12/18 11:30:41;;;;;;;1.82;1.60;;;;;;;10.19;67.58;102908.36;1739995;82;21148;-47
2020/12/18 11:33:10;;;;;;;1.52;1.20;;;;;;;10.17;67.72;102915.70;1738771;82;21152;-46
2020/12/18 11:35:38;;;;;;;2.52;1.67;;;;;;;10.13;67.77;102910.00;1738434;82;21125;-48
2020/12/18 11:38:07;;;;;;;3.10;1.45;;;;;;;10.11;68.09;102913.00;1738436;82;21152;-47
2020/12/18 11:40:35;;;;;;;2.12;1.70;;;;;;;10.12;68.30;102910.87;1737939;82;21151;-48
2020/12/18 11:43:04;;;;;;;3.50;2.70;;;;;;;10.12;68.21;102910.87;1735929;82;21211;-47
2020/12/18 11:45:33;;;;;;;2.55;1.60;;;;;;;10.12;68.51;102908.27;1741548;82;21153;-47
2020/12/18 11:48:02;;;;;;;4.37;1.70;;;;;;;10.12;68.45;102904.36;1735185;82;21282;-48
2020/12/18 11:50:31;;;;;;;2.67;2.12;;;;;;;10.14;68.51;102908.71;1736357;82;21299;-46
2020/12/18 11:52:59;;;;;;;2.12;1.80;;;;;;;10.17;68.38;102909.19;1732807;82;21152;-47
2020/12/18 11:55:27;;;;;;;2.77;2.20;;;;;;;10.17;68.44;102911.79;1735144;82;21184;-46
2020/12/18 11:57:55;;;;;;;3.05;2.20;;;;;;;10.21;68.25;102913.58;1734715;82;21108;-47
2020/12/18 12:00:24;;;;;;;3.52;1.95;;;;;;;10.18;68.12;102913.56;1734861;82;21184;-47
2020/12/18 12:02:53;;;;;;;2.25;1.80;;;;;;;10.16;68.12;102911.36;1739188;82;21564;-47
2020/12/18 12:05:23;;;;;;;3.85;2.25;;;;;;;10.15;68.39;102918.70;1735989;82;21573;-47
2020/12/18 12:07:51;;;;;;;3.22;2.08;;;;;;;10.15;68.45;102919.58;1740520;82;21160;-47